Time;durP1;ratioP1;P1;durP2;ratioP2;P2;SDS_P1;SDS_P2;PMS_P1;PMS_P2;Temp;Humidity;BMP_temperature;BMP_pressure;BME280_temperature;BME280_humidity;BME280_pressure;Samples;Min_cycle;Max_cycle;Signal;HPM_P1;HPM_P2
2021/11/02 00:01:05;;;;;;;0.20;0.20;;;12.20;94.20;;;;;;5051166;28;20551;-69
2021/11/02 00:03:33;;;;;;;0.30;0.30;;;12.20;94.20;;;;;;5075287;28;20210;-68
2021/11/02 00:06:00;;;;;;;0.67;0.67;;;12.20;94.20;;;;;;5075771;28;20217;-69
2021/11/02 00:08:28;;;;;;;0.83;0.83;;;12.20;94.50;;;;;;5076044;28;20222;-69
2021/11/02 00:10:55;;;;;;;1.77;1.10;;;12.10;94.20;;;;;;5074955;28;20230;-69
2021/11/02 00:13:25;;;;;;;1.03;1.03;;;12.10;94.20;;;;;;5057643;28;20206;-69
2021/11/02 00:15:55;;;;;;;0.17;0.17;;;12.10;94.20;;;;;;5072262;28;20589;-69
2021/11/02 00:18:24;;;;;;;0.60;0.60;;;12.10;94.20;;;;;;5056848;28;20618;-69
2021/11/02 00:20:58;;;;;;;0.30;0.30;;;12.00;94.20;;;;;;5074365;28;20221;-69
2021/11/02 00:23:28;;;;;;;0.27;0.27;;;12.00;94.20;;;;;;5074961;28;20316;-69
2021/11/02 00:25:55;;;;;;;0.60;0.60;;;12.00;94.10;;;;;;5072888;28;20305;-69
2021/11/02 00:28:23;;;;;;;0.33;0.33;;;12.00;94.20;;;;;;5074644;28;20213;-69
2021/11/02 00:30:50;;;;;;;0.80;0.80;;;12.00;94.20;;;;;;5056462;28;20250;-69
2021/11/02 00:33:17;;;;;;;0.10;0.10;;;11.90;94.10;;;;;;5052767;28;20198;-69
2021/11/02 00:35:43;;;;;;;0.73;0.73;;;11.90;94.10;;;;;;5074222;28;20218;-69
2021/11/02 00:38:10;;;;;;;0.60;0.60;;;11.90;94.20;;;;;;5057120;28;20214;-68
2021/11/02 00:40:40;;;;;;;0.20;0.20;;;11.80;94.10;;;;;;5073255;28;20213;-69
2021/11/02 00:43:09;;;;;;;0.10;0.10;;;11.80;94.10;;;;;;5053483;28;20218;-69
2021/11/02 00:45:38;;;;;;;0.80;0.80;;;11.80;94.10;;;;;;5073725;28;20256;-68
2021/11/02 00:48:11;;;;;;;0.50;0.50;;;11.80;94.10;;;;;;5049602;28;20244;-68
2021/11/02 00:50:44;;;;;;;0.30;0.30;;;11.80;94.10;;;;;;5074592;28;20224;-69
2021/11/02 00:53:12;;;;;;;0.33;0.33;;;11.80;94.10;;;;;;5071746;28;20238;-69
2021/11/02 00:55:40;;;;;;;0.47;0.47;;;11.70;94.20;;;;;;5056394;28;20209;-69
2021/11/02 00:58:07;;;;;;;0.20;0.20;;;11.70;94.20;;;;;;5057088;28;20210;-69
2021/11/02 01:00:36;;;;;;;0.13;0.13;;;11.70;94.20;;;;;;5074005;28;20544;-69
2021/11/02 01:03:05;;;;;;;0.17;0.17;;;11.70;94.20;;;;;;5074448;28;20220;-69
2021/11/02 01:05:33;;;;;;;1.43;1.33;;;11.60;94.20;;;;;;5071682;28;20589;-69
2021/11/02 01:08:00;;;;;;;0.10;0.10;;;11.70;94.20;;;;;;5074533;28;20214;-69
2021/11/02 01:10:28;;;;;;;0.90;0.90;;;11.60;94.20;;;;;;5074400;28;20209;-69
2021/11/02 01:12:55;;;;;;;7.13;0.60;;;11.60;94.20;;;;;;5074638;28;20229;-69
2021/11/02 01:15:26;;;;;;;0.70;0.70;;;11.60;94.20;;;;;;5074670;28;20260;-69
2021/11/02 01:17:55;;;;;;;0.83;0.67;;;11.50;94.20;;;;;;5056624;28;20214;-69
2021/11/02 01:20:23;;;;;;;0.20;0.20;;;11.50;94.20;;;;;;5070462;28;20225;-68
2021/11/02 01:22:50;;;;;;;0.10;0.10;;;11.50;94.10;;;;;;5074127;28;20221;-69
2021/11/02 01:25:21;;;;;;;0.10;0.10;;;11.50;94.10;;;;;;5074619;28;20521;-69
2021/11/02 01:27:49;;;;;;;0.27;0.27;;;11.50;94.10;;;;;;5073726;28;20564;-68
2021/11/02 01:30:16;;;;;;;2.67;0.90;;;11.50;94.10;;;;;;5056293;28;20210;-68
2021/11/02 01:32:44;;;;;;;0.23;0.23;;;11.50;94.10;;;;;;5073522;28;20221;-68
2021/11/02 01:35:12;;;;;;;0.57;0.57;;;11.40;94.10;;;;;;5070022;28;20217;-68
2021/11/02 01:37:39;;;;;;;0.20;0.20;;;11.40;94.10;;;;;;5073052;28;20209;-68
2021/11/02 01:40:09;;;;;;;0.20;0.20;;;11.40;94.10;;;;;;5073220;28;20220;-69
2021/11/02 01:42:37;;;;;;;0.10;0.10;;;11.40;94.10;;;;;;5073458;28;20218;-69
2021/11/02 01:45:05;;;;;;;0.40;0.40;;;11.40;94.10;;;;;;5073431;28;20218;-69
2021/11/02 01:47:34;;;;;;;0.10;0.10;;;11.40;94.10;;;;;;5072904;28;20246;-69
2021/11/02 01:50:03;;;;;;;0.80;0.80;;;11.40;94.10;;;;;;5073465;28;20534;-69
2021/11/02 01:52:32;;;;;;;2.30;1.30;;;11.30;94.10;;;;;;5055069;28;20248;-69
2021/11/02 01:55:00;;;;;;;0.37;0.37;;;11.30;94.10;;;;;;5073612;28;20213;-69
2021/11/02 01:57:27;;;;;;;0.27;0.27;;;11.30;94.10;;;;;;5055311;28;20486;-69
2021/11/02 01:59:55;;;;;;;0.30;0.30;;;11.20;94.10;;;;;;5073543;28;20214;-69
2021/11/02 02:02:41;;;;;;;0.30;0.30;;;11.20;94.10;;;;;;5055088;28;20682;-69
2021/11/02 02:05:24;;;;;;;0.43;0.27;;;11.20;94.10;;;;;;5073286;28;20228;-69
2021/11/02 02:08:27;;;;;;;0.20;0.20;;;11.20;94.20;;;;;;5072893;28;20222;-69
2021/11/02 02:11:16;;;;;;;0.77;0.67;;;11.20;94.20;;;;;;5071896;28;20221;-69
2021/11/02 02:13:51;;;;;;;0.57;0.57;;;11.10;94.10;;;;;;5071504;28;20221;-69
2021/11/02 02:16:37;;;;;;;0.50;0.50;;;11.10;94.20;;;;;;5069792;28;20256;-69
2021/11/02 02:19:34;;;;;;;0.23;0.23;;;11.10;94.10;;;;;;5073413;28;20216;-69
2021/11/02 02:22:33;;;;;;;0.10;0.10;;;11.10;94.10;;;;;;5039831;28;20329;-69
2021/11/02 02:25:17;;;;;;;0.57;0.57;;;11.10;94.10;;;;;;5070602;28;20830;-69
2021/11/02 02:28:05;;;;;;;0.20;0.20;;;11.10;94.10;;;;;;5069975;28;20224;-69
2021/11/02 02:30:38;;;;;;;0.47;0.47;;;11.10;94.10;;;;;;5072995;28;20214;-69
2021/11/02 02:33:06;;;;;;;0.57;0.57;;;11.00;94.00;;;;;;5052032;28;20244;-69
2021/11/02 02:35:35;;;;;;;0.50;0.50;;;11.00;94.00;;;;;;5072668;28;20228;-69
2021/11/02 02:38:03;;;;;;;0.70;0.70;;;11.00;94.00;;;;;;5072776;28;20209;-69
2021/11/02 02:40:31;;;;;;;0.43;0.43;;;11.00;94.00;;;;;;5070999;28;20646;-69
2021/11/02 02:42:59;;;;;;;1.23;1.13;;;10.90;94.00;;;;;;5071000;28;20363;-68
2021/11/02 02:45:27;;;;;;;0.50;0.50;;;10.90;94.00;;;;;;5054163;28;20635;-69
2021/11/02 02:47:55;;;;;;;0.30;0.30;;;10.90;94.10;;;;;;5072292;28;20312;-69
2021/11/02 02:50:26;;;;;;;2.83;2.23;;;10.90;94.10;;;;;;5072225;28;20339;-69
2021/11/02 02:52:54;;;;;;;0.57;0.57;;;10.90;94.10;;;;;;5072163;28;20237;-69
2021/11/02 02:55:22;;;;;;;0.93;0.93;;;10.80;94.00;;;;;;5072477;28;20620;-69
2021/11/02 02:57:53;;;;;;;0.40;0.40;;;10.90;94.10;;;;;;5068544;28;20221;-68
2021/11/02 03:00:20;;;;;;;0.50;0.50;;;10.90;94.10;;;;;;5074699;28;20206;-68
2021/11/02 03:02:50;;;;;;;0.10;0.10;;;10.80;94.10;;;;;;5072791;28;20229;-68
2021/11/02 03:05:18;;;;;;;0.23;0.23;;;10.90;94.10;;;;;;5074731;28;20228;-69
2021/11/02 03:07:46;;;;;;;0.27;0.27;;;10.90;94.10;;;;;;5058583;28;20214;-69
2021/11/02 03:10:13;;;;;;;0.50;0.50;;;10.90;94.10;;;;;;5058459;28;20221;-69
2021/11/02 03:12:45;;;;;;;2.70;1.13;;;10.80;94.10;;;;;;5075879;28;20248;-69
2021/11/02 03:18:18;;;;;;;0.67;0.50;;;10.90;94.00;;;;;;5076112;28;20213;-69
2021/11/02 03:48:53;;;;;;;0.77;0.53;;;10.90;93.70;;;;;;5019421;28;20222;-69
2021/11/02 06:00:37;;;;;;;0.77;0.40;;;10.30;93.60;;;;;;5074401;28;20278;-69
2021/11/02 06:03:24;;;;;;;3.00;1.60;;;10.30;93.60;;;;;;5074007;28;20252;-69
2021/11/02 06:06:06;;;;;;;0.77;0.77;;;10.30;93.90;;;;;;5068315;28;20569;-69
2021/11/02 06:28:49;;;;;;;0.10;0.10;;;10.30;93.70;;;;;;5072081;28;20682;-69
2021/11/02 06:36:47;;;;;;;0.37;0.37;;;10.50;93.80;;;;;;5072519;28;20201;-69
2021/11/02 06:42:14;;;;;;;0.57;0.50;;;10.70;93.90;;;;;;5069075;28;20216;-68
2021/11/02 07:18:11;;;;;;;1.53;0.73;;;13.00;91.20;;;;;;5072323;28;20290;-69
2021/11/02 07:20:54;;;;;;;6.73;1.87;;;13.10;90.70;;;;;;5071365;28;20213;-69
2021/11/02 08:48:00;;;;;;;0.93;0.93;;;16.10;78.50;;;;;;5072371;28;20683;-69
2021/11/02 08:50:33;;;;;;;0.30;0.30;;;16.00;77.70;;;;;;5069567;28;20220;-69
2021/11/02 08:53:03;;;;;;;1.47;0.87;;;16.10;77.80;;;;;;5073935;28;20237;-69
2021/11/02 08:55:30;;;;;;;0.47;0.47;;;16.00;78.00;;;;;;5073555;28;20221;-70
2021/11/02 08:57:57;;;;;;;1.60;0.70;;;16.00;78.00;;;;;;5073521;28;20217;-70
2021/11/02 09:00:24;;;;;;;0.57;0.57;;;16.00;77.60;;;;;;5073499;28;20210;-70
2021/11/02 09:03:06;;;;;;;3.87;0.70;;;16.00;77.20;;;;;;5069984;28;20241;-70
2021/11/02 09:05:36;;;;;;;0.30;0.30;;;16.00;77.00;;;;;;5072802;28;20267;-70
2021/11/02 09:08:07;;;;;;;0.30;0.30;;;16.00;77.70;;;;;;5055940;28;20213;-70
2021/11/02 09:10:35;;;;;;;0.90;0.90;;;16.10;76.70;;;;;;5068804;28;20213;-70
2021/11/02 09:13:03;;;;;;;0.10;0.10;;;16.20;76.10;;;;;;5055359;28;20226;-70
2021/11/02 09:15:33;;;;;;;0.23;0.23;;;16.30;76.60;;;;;;5054626;28;20554;-70
2021/11/02 09:18:04;;;;;;;0.10;0.10;;;16.50;75.90;;;;;;5056014;28;20202;-70
2021/11/02 09:20:32;;;;;;;0.57;0.57;;;16.60;75.60;;;;;;5069301;28;20217;-70
2021/11/02 09:22:59;;;;;;;0.57;0.57;;;16.70;75.50;;;;;;5073312;28;20273;-70
2021/11/02 09:25:27;;;;;;;0.57;0.57;;;16.80;74.90;;;;;;5054515;28;20229;-70
2021/11/02 09:27:54;;;;;;;0.90;0.80;;;16.90;75.10;;;;;;5072335;28;20213;-70
2021/11/02 09:30:23;;;;;;;0.50;0.50;;;17.00;74.50;;;;;;5054241;28;20272;-71
2021/11/02 09:32:56;;;;;;;0.80;0.80;;;17.00;73.70;;;;;;5054986;28;20566;-70
2021/11/02 09:35:25;;;;;;;0.30;0.30;;;17.10;73.60;;;;;;5051588;28;20635;-70
2021/11/02 09:38:07;;;;;;;1.47;1.00;;;17.20;72.60;;;;;;5073009;28;20221;-70
2021/11/02 09:40:42;;;;;;;0.50;0.40;;;17.20;73.00;;;;;;5071980;28;20289;-70
2021/11/02 09:43:41;;;;;;;0.40;0.40;;;17.30;73.00;;;;;;5055020;28;20213;-70
2021/11/02 09:46:38;;;;;;;0.30;0.30;;;17.40;73.00;;;;;;5048536;28;20258;-71
2021/11/02 09:49:12;;;;;;;0.20;0.20;;;17.50;73.10;;;;;;5051855;28;20215;-70
2021/11/02 09:52:05;;;;;;;0.73;0.40;;;17.60;72.30;;;;;;5049380;28;20230;-70
2021/11/02 09:54:35;;;;;;;0.30;0.30;;;17.70;72.00;;;;;;5040441;28;20683;-70
2021/11/02 09:57:26;;;;;;;0.47;0.47;;;17.90;71.90;;;;;;5051856;28;20313;-70
2021/11/02 10:00:05;;;;;;;0.60;0.60;;;18.00;71.20;;;;;;5047092;28;20218;-70
2021/11/02 10:02:49;;;;;;;0.40;0.40;;;18.00;71.70;;;;;;5048300;28;20214;-70
2021/11/02 10:05:25;;;;;;;0.33;0.33;;;18.10;71.20;;;;;;5035192;28;20210;-70
2021/11/02 10:08:06;;;;;;;1.90;1.70;;;18.10;69.30;;;;;;5048913;28;20313;-70
2021/11/02 10:11:11;;;;;;;0.73;0.73;;;18.10;69.70;;;;;;5052242;28;20268;-70
2021/11/02 10:13:51;;;;;;;351.17;267.83;;;18.20;69.70;;;;;;5023226;28;20245;-70
2021/11/02 10:16:29;;;;;;;89.53;57.20;;;18.30;70.20;;;;;;5051665;28;20272;-71
2021/11/02 10:19:07;;;;;;;30.30;27.23;;;18.30;69.70;;;;;;5049183;28;20210;-70
2021/11/02 10:21:37;;;;;;;88.17;58.00;;;18.40;70.10;;;;;;5034447;28;20214;-70
2021/11/02 10:24:28;;;;;;;86.10;38.73;;;18.40;70.10;;;;;;5043416;28;20225;-71
2021/11/02 10:27:04;;;;;;;23.93;14.70;;;18.50;69.50;;;;;;5051720;28;20210;-70
2021/11/02 10:29:55;;;;;;;19.53;9.43;;;18.40;69.20;;;;;;5049161;28;20214;-69
2021/11/02 10:32:28;;;;;;;1.30;1.27;;;18.40;68.80;;;;;;5044696;28;20276;-70
2021/11/02 10:35:19;;;;;;;3.43;3.13;;;18.40;69.80;;;;;;5049902;28;20238;-70
2021/11/02 10:38:02;;;;;;;3.73;2.37;;;18.40;69.90;;;;;;5034930;28;20295;-70
2021/11/02 10:40:40;;;;;;;0.23;0.23;;;18.50;69.90;;;;;;5024904;28;20210;-70
2021/11/02 10:43:28;;;;;;;0.23;0.23;;;18.60;70.00;;;;;;5035374;28;20562;-70
2021/11/02 10:46:09;;;;;;;0.10;0.10;;;18.60;70.20;;;;;;5054741;28;20242;-70
2021/11/02 10:48:43;;;;;;;0.90;0.90;;;18.70;69.90;;;;;;5041407;28;20225;-70
2021/11/02 10:51:58;;;;;;;0.83;0.83;;;18.80;68.60;;;;;;5072476;28;20226;-71
2021/11/02 10:54:52;;;;;;;0.40;0.40;;;18.90;69.10;;;;;;5003030;28;20244;-70
2021/11/02 10:58:11;;;;;;;0.23;0.23;;;19.00;69.10;;;;;;4993582;28;20222;-70
2021/11/02 11:00:40;;;;;;;0.20;0.20;;;19.10;68.40;;;;;;5070089;28;20652;-70
2021/11/02 11:03:09;;;;;;;0.20;0.20;;;19.10;68.40;;;;;;5055126;28;20241;-71
2021/11/02 11:05:37;;;;;;;0.10;0.10;;;19.20;67.40;;;;;;5071385;28;20713;-70
2021/11/02 11:08:05;;;;;;;0.83;0.73;;;19.30;66.70;;;;;;5068970;28;20213;-70
2021/11/02 11:10:32;;;;;;;0.40;0.40;;;19.40;66.60;;;;;;5072226;28;20218;-71
2021/11/02 11:13:01;;;;;;;0.10;0.10;;;19.40;66.50;;;;;;5072495;28;20683;-70
2021/11/02 11:15:32;;;;;;;0.37;0.37;;;19.50;66.80;;;;;;5072209;28;20595;-70
2021/11/02 11:17:59;;;;;;;0.73;0.73;;;19.50;66.70;;;;;;5055176;28;20304;-70
2021/11/02 11:20:27;;;;;;;1.90;0.77;;;19.60;67.10;;;;;;5072261;28;20271;-70
2021/11/02 11:22:54;;;;;;;0.10;0.10;;;19.70;66.90;;;;;;5071938;28;20217;-71
2021/11/02 11:25:21;;;;;;;0.67;0.67;;;19.80;66.80;;;;;;5073256;28;20595;-70
2021/11/02 11:27:56;;;;;;;0.83;0.70;;;19.80;66.30;;;;;;5075860;28;20221;-70
2021/11/02 11:30:33;;;;;;;0.73;0.73;;;19.80;66.60;;;;;;5075448;28;20581;-70
2021/11/02 11:33:07;;;;;;;1.03;1.03;;;19.70;67.20;;;;;;5072884;28;20304;-71
2021/11/02 11:35:37;;;;;;;1.30;1.20;;;19.70;67.30;;;;;;5075671;28;20225;-70
2021/11/02 11:38:07;;;;;;;0.60;0.60;;;19.80;67.40;;;;;;5075869;28;20293;-70
2021/11/02 11:40:39;;;;;;;0.10;0.10;;;19.70;67.20;;;;;;5054308;28;20221;-70
2021/11/02 11:43:07;;;;;;;2.43;0.60;;;19.60;67.00;;;;;;5075500;28;20213;-70
2021/11/02 11:45:38;;;;;;;0.30;0.30;;;19.60;66.60;;;;;;5075029;28;20278;-70
2021/11/02 11:48:13;;;;;;;0.10;0.10;;;19.50;66.30;;;;;;5075853;28;20214;-70
2021/11/02 11:50:42;;;;;;;0.93;0.87;;;19.30;66.80;;;;;;5055420;28;20607;-70
2021/11/02 11:53:19;;;;;;;0.83;0.83;;;19.30;67.00;;;;;;5057582;28;20209;-70
2021/11/02 11:55:49;;;;;;;0.30;0.30;;;19.20;66.80;;;;;;5075223;28;20209;-71
2021/11/02 11:58:24;;;;;;;0.30;0.30;;;19.30;66.60;;;;;;5055526;28;20202;-70
2021/11/02 12:01:06;;;;;;;0.43;0.43;;;19.30;66.20;;;;;;5057073;28;20210;-70
2021/11/02 12:03:57;;;;;;;0.30;0.30;;;19.40;66.30;;;;;;5042866;28;20224;-71
2021/11/02 12:06:29;;;;;;;1.13;1.13;;;19.50;65.80;;;;;;5071810;28;20210;-70
2021/11/02 12:09:19;;;;;;;0.23;0.23;;;19.50;65.10;;;;;;5056464;28;20213;-71
2021/11/02 12:11:48;;;;;;;0.33;0.33;;;19.40;63.90;;;;;;5053748;28;20222;-71
2021/11/02 12:14:25;;;;;;;0.40;0.40;;;19.50;64.10;;;;;;5075632;28;20226;-71
2021/11/02 12:16:58;;;;;;;0.10;0.10;;;19.50;64.90;;;;;;5053915;28;20214;-71
2021/11/02 12:19:40;;;;;;;0.40;0.40;;;19.50;63.70;;;;;;5058906;28;20210;-71
2021/11/02 12:22:12;;;;;;;0.10;0.10;;;19.50;63.70;;;;;;5053543;28;20213;-71
2021/11/02 12:24:41;;;;;;;0.23;0.23;;;19.60;63.30;;;;;;5057800;28;20209;-71
2021/11/02 12:27:41;;;;;;;0.10;0.10;;;19.60;63.50;;;;;;5075781;28;20221;-71
2021/11/02 12:30:19;;;;;;;0.40;0.40;;;19.60;63.10;;;;;;5058833;28;20231;-71
2021/11/02 12:32:57;;;;;;;0.10;0.10;;;19.60;63.00;;;;;;5072866;28;20221;-70
2021/11/02 12:35:38;;;;;;;0.20;0.20;;;19.70;63.70;;;;;;5074959;28;20656;-70
2021/11/02 12:38:06;;;;;;;0.40;0.40;;;19.70;62.30;;;;;;5070302;28;20218;-71
2021/11/02 12:40:42;;;;;;;0.30;0.30;;;19.70;61.80;;;;;;5074715;28;20214;-71
2021/11/02 12:43:30;;;;;;;0.40;0.40;;;19.50;62.30;;;;;;5072705;28;20209;-72
2021/11/02 12:46:02;;;;;;;0.23;0.23;;;19.40;61.60;;;;;;5075286;28;20253;-72
2021/11/02 12:48:31;;;;;;;0.93;0.33;;;19.40;62.10;;;;;;5074741;28;20293;-72
2021/11/02 12:51:19;;;;;;;0.40;0.40;;;19.40;62.70;;;;;;5074744;28;20217;-72
2021/11/02 12:53:52;;;;;;;0.40;0.40;;;19.40;62.40;;;;;;5074951;28;20702;-72
2021/11/02 12:56:21;;;;;;;1.60;0.87;;;19.40;62.90;;;;;;5074736;28;20214;-71
2021/11/02 12:58:56;;;;;;;0.70;0.70;;;19.40;63.00;;;;;;5057233;28;20218;-71
2021/11/02 13:01:50;;;;;;;0.33;0.33;;;19.30;63.10;;;;;;5046443;28;20213;-71
2021/11/02 13:04:18;;;;;;;0.17;0.17;;;19.30;62.90;;;;;;5049863;28;20566;-71
2021/11/02 13:06:50;;;;;;;0.77;0.77;;;19.20;62.40;;;;;;5056134;28;20229;-71
2021/11/02 13:09:22;;;;;;;1.37;1.10;;;19.20;63.20;;;;;;5056203;28;20627;-71
2021/11/02 13:12:09;;;;;;;0.60;0.40;;;19.20;63.50;;;;;;5044862;28;20229;-71
2021/11/02 13:14:47;;;;;;;0.67;0.67;;;19.10;64.10;;;;;;5070343;28;20237;-71
2021/11/02 13:17:25;;;;;;;3.47;0.50;;;19.10;64.00;;;;;;5056081;28;20235;-71
2021/11/02 13:19:58;;;;;;;0.50;0.50;;;19.10;62.30;;;;;;5056233;28;20282;-71
2021/11/02 13:22:27;;;;;;;0.20;0.20;;;19.10;62.70;;;;;;5055712;28;20558;-71
2021/11/02 13:25:12;;;;;;;0.20;0.20;;;19.10;62.30;;;;;;5056242;28;20221;-71
2021/11/02 13:27:41;;;;;;;0.67;0.67;;;19.10;62.40;;;;;;5049214;28;20218;-71
2021/11/02 13:30:27;;;;;;;0.67;0.67;;;19.10;62.50;;;;;;5074292;28;20217;-71
2021/11/02 13:33:32;;;;;;;0.93;0.30;;;19.20;62.90;;;;;;5050415;28;20218;-70
2021/11/02 13:36:01;;;;;;;0.10;0.10;;;19.20;63.90;;;;;;4972300;28;20264;-71
2021/11/02 13:38:37;;;;;;;0.17;0.17;;;19.20;63.80;;;;;;4956993;28;20221;-70
2021/11/02 13:41:25;;;;;;;0.30;0.30;;;19.10;63.60;;;;;;5011815;28;20214;-71
2021/11/02 13:44:14;;;;;;;0.43;0.43;;;19.10;63.30;;;;;;5040920;28;20210;-71
2021/11/02 13:46:48;;;;;;;0.10;0.10;;;19.00;64.10;;;;;;5052015;28;20640;-70
2021/11/02 13:49:17;;;;;;;0.10;0.10;;;19.00;64.00;;;;;;5055474;28;20225;-71
2021/11/02 13:51:44;;;;;;;0.30;0.30;;;18.90;64.40;;;;;;5072694;28;20214;-70
2021/11/02 13:54:12;;;;;;;0.13;0.13;;;18.90;64.70;;;;;;5072431;28;20726;-71
2021/11/02 13:56:44;;;;;;;0.53;0.53;;;18.80;65.00;;;;;;5055193;28;20209;-71
2021/11/02 13:59:14;;;;;;;3.50;0.83;;;18.80;65.50;;;;;;5050676;28;20635;-71
2021/11/02 14:01:45;;;;;;;0.30;0.30;;;18.80;65.20;;;;;;5055087;28;20654;-71
2021/11/02 14:04:32;;;;;;;4.40;0.40;;;18.80;65.20;;;;;;5072001;28;20221;-70
2021/11/02 14:07:03;;;;;;;0.20;0.20;;;18.80;64.90;;;;;;5069837;28;20216;-70
2021/11/02 14:09:35;;;;;;;0.20;0.20;;;18.80;63.80;;;;;;5054387;28;20220;-70
2021/11/02 14:12:27;;;;;;;0.10;0.10;;;18.70;63.60;;;;;;5060308;28;20228;-71
2021/11/02 14:15:17;;;;;;;0.00;0.00;;;18.70;63.40;;;;;;5069457;28;20641;-70
2021/11/02 14:17:58;;;;;;;0.40;0.40;;;18.70;63.60;;;;;;5069266;28;20522;-71
2021/11/02 14:20:54;;;;;;;0.07;0.07;;;18.80;63.20;;;;;;5072565;28;20282;-71
2021/11/02 14:23:30;;;;;;;0.00;0.00;;;18.90;62.90;;;;;;5071202;28;20552;-71
2021/11/02 14:26:16;;;;;;;0.20;0.20;;;18.90;62.40;;;;;;5071588;28;20263;-71
2021/11/02 14:28:51;;;;;;;0.10;0.10;;;18.90;61.60;;;;;;5069348;28;20447;-70
2021/11/02 14:31:37;;;;;;;0.50;0.50;;;18.90;61.20;;;;;;5054778;28;20205;-71
2021/11/02 14:34:05;;;;;;;0.30;0.30;;;18.80;61.50;;;;;;5049252;28;20207;-71
2021/11/02 14:36:39;;;;;;;0.33;0.33;;;18.80;61.90;;;;;;5072511;28;20607;-71
2021/11/02 14:39:13;;;;;;;0.30;0.30;;;18.70;62.40;;;;;;5072562;28;20586;-71
2021/11/02 14:41:48;;;;;;;0.10;0.10;;;18.60;62.60;;;;;;5039254;28;20209;-71
2021/11/02 14:44:15;;;;;;;0.57;0.30;;;18.50;63.00;;;;;;5048227;28;20209;-71
2021/11/02 14:46:43;;;;;;;4.90;0.43;;;18.40;63.60;;;;;;5072516;28;20257;-71
2021/11/02 14:49:30;;;;;;;0.10;0.10;;;18.40;62.90;;;;;;5043413;28;20678;-71
2021/11/02 14:52:00;;;;;;;0.20;0.20;;;18.40;62.30;;;;;;5069534;28;20198;-71
2021/11/02 14:54:34;;;;;;;0.40;0.40;;;18.40;62.20;;;;;;5072646;28;20229;-71
2021/11/02 14:57:19;;;;;;;0.10;0.10;;;18.40;62.40;;;;;;5068560;28;20290;-72
2021/11/02 15:00:03;;;;;;;0.63;0.20;;;18.40;62.40;;;;;;5051537;28;20304;-72
2021/11/02 15:02:39;;;;;;;0.20;0.20;;;18.40;62.30;;;;;;5058923;28;20208;-72
2021/11/02 15:05:13;;;;;;;0.10;0.10;;;18.40;62.20;;;;;;5073614;28;20726;-73
2021/11/02 15:07:45;;;;;;;0.10;0.10;;;18.30;62.20;;;;;;5058997;28;20210;-73
2021/11/02 15:10:14;;;;;;;1.20;1.10;;;18.20;62.40;;;;;;5057246;28;20214;-73
2021/11/02 15:12:44;;;;;;;0.10;0.10;;;18.20;63.30;;;;;;5071471;28;20224;-73
2021/11/02 15:15:11;;;;;;;7.20;0.37;;;18.00;63.90;;;;;;5075518;28;20252;-71
2021/11/02 15:17:39;;;;;;;0.10;0.10;;;18.00;64.30;;;;;;5074548;28;20296;-71
2021/11/02 15:20:26;;;;;;;1.33;1.27;;;17.90;64.70;;;;;;5056848;28;20214;-71
2021/11/02 15:22:57;;;;;;;0.17;0.17;;;17.80;65.00;;;;;;5057149;28;20225;-71
2021/11/02 15:25:25;;;;;;;1.00;0.40;;;17.80;65.60;;;;;;5075071;28;20209;-71
2021/11/02 15:28:01;;;;;;;0.77;0.63;;;17.70;66.70;;;;;;5074194;28;20340;-71
2021/11/02 15:30:29;;;;;;;0.30;0.30;;;17.70;67.30;;;;;;5054911;28;20659;-71
2021/11/02 15:32:56;;;;;;;0.80;0.80;;;17.60;67.80;;;;;;5054478;28;20206;-71
2021/11/02 15:35:26;;;;;;;0.40;0.40;;;17.60;68.10;;;;;;5057625;28;20557;-71
2021/11/02 15:37:59;;;;;;;0.20;0.20;;;17.50;68.60;;;;;;5057158;28;20288;-70
2021/11/02 15:40:39;;;;;;;0.70;0.70;;;17.40;69.30;;;;;;5071945;28;20666;-71
2021/11/02 15:43:09;;;;;;;0.40;0.40;;;17.30;69.70;;;;;;5059317;28;20237;-71
2021/11/02 15:45:39;;;;;;;0.90;0.20;;;17.20;70.30;;;;;;5059682;28;20264;-71
2021/11/02 15:48:22;;;;;;;0.37;0.37;;;17.10;70.70;;;;;;5059336;28;20288;-71
2021/11/02 15:50:52;;;;;;;1.40;1.03;;;17.10;71.10;;;;;;5059197;28;20239;-71
2021/11/02 15:53:26;;;;;;;0.60;0.60;;;17.00;71.50;;;;;;5073863;28;20597;-71
2021/11/02 15:56:02;;;;;;;2.23;0.40;;;17.00;71.90;;;;;;5076448;28;20316;-71
2021/11/02 15:58:33;;;;;;;0.10;0.10;;;16.80;72.30;;;;;;5059379;28;20217;-71
2021/11/02 16:01:00;;;;;;;0.20;0.20;;;16.80;72.60;;;;;;5073484;28;20224;-71
2021/11/02 16:03:35;;;;;;;8.07;0.60;;;16.70;72.80;;;;;;5058798;28;20209;-71
2021/11/02 16:06:06;;;;;;;0.30;0.30;;;16.70;73.10;;;;;;5058989;28;20227;-70
2021/11/02 16:08:34;;;;;;;0.10;0.10;;;16.60;73.40;;;;;;5073397;28;20217;-70
2021/11/02 16:11:05;;;;;;;0.30;0.30;;;16.50;73.80;;;;;;5058983;28;20214;-72
2021/11/02 16:13:32;;;;;;;0.50;0.50;;;16.50;74.20;;;;;;5060148;28;20218;-72
2021/11/02 16:16:01;;;;;;;0.40;0.40;;;16.40;74.50;;;;;;5059474;28;20251;-72
2021/11/02 16:18:32;;;;;;;0.30;0.30;;;16.40;74.80;;;;;;5076676;28;20663;-71
2021/11/02 16:21:02;;;;;;;0.33;0.33;;;16.30;75.10;;;;;;5074472;28;20213;-72
2021/11/02 16:23:48;;;;;;;0.30;0.30;;;16.20;75.50;;;;;;5059904;28;20252;-71
2021/11/02 16:26:27;;;;;;;0.10;0.10;;;16.20;76.10;;;;;;5075832;28;20213;-71
2021/11/02 16:29:14;;;;;;;0.50;0.50;;;16.10;76.50;;;;;;5064871;28;20241;-71
2021/11/02 16:31:41;;;;;;;0.20;0.20;;;16.00;77.00;;;;;;5050719;28;20224;-71
2021/11/02 16:34:21;;;;;;;0.77;0.77;;;15.90;77.60;;;;;;5076790;28;20564;-70
2021/11/02 16:36:48;;;;;;;0.60;0.60;;;15.80;78.00;;;;;;5073295;28;20324;-68
2021/11/02 16:39:15;;;;;;;0.70;0.63;;;15.70;78.20;;;;;;5072646;28;20214;-69
2021/11/02 16:41:47;;;;;;;0.47;0.47;;;15.70;78.60;;;;;;5071474;28;20202;-68
2021/11/02 16:44:25;;;;;;;0.97;0.97;;;15.60;79.10;;;;;;5075262;28;20214;-69
2021/11/02 16:47:09;;;;;;;0.60;0.60;;;15.60;79.50;;;;;;5073750;28;20279;-69
2021/11/02 16:49:38;;;;;;;0.67;0.67;;;15.50;79.90;;;;;;5045336;28;20210;-69
2021/11/02 16:52:07;;;;;;;0.53;0.50;;;15.40;80.20;;;;;;5048502;28;20230;-69
2021/11/02 16:54:43;;;;;;;1.53;1.43;;;15.40;80.40;;;;;;5058920;28;20220;-70
2021/11/02 16:57:29;;;;;;;1.03;1.03;;;15.40;80.60;;;;;;5074425;28;20224;-69
2021/11/02 17:00:10;;;;;;;0.53;0.53;;;15.40;80.60;;;;;;5057327;28;20205;-69
2021/11/02 17:02:41;;;;;;;0.67;0.67;;;15.40;80.70;;;;;;5057129;28;20222;-69
2021/11/02 17:05:11;;;;;;;0.70;0.70;;;15.40;80.80;;;;;;5058223;28;20228;-69
2021/11/02 17:07:47;;;;;;;0.10;0.10;;;15.30;80.90;;;;;;5058523;28;20312;-69
2021/11/02 17:10:33;;;;;;;0.27;0.27;;;15.30;81.20;;;;;;5043214;28;20220;-70
2021/11/02 17:13:20;;;;;;;0.37;0.37;;;15.20;81.30;;;;;;5075298;28;20209;-70
2021/11/02 17:15:52;;;;;;;1.97;1.73;;;15.20;81.60;;;;;;5045135;28;20244;-70
2021/11/02 17:18:41;;;;;;;0.57;0.57;;;15.20;81.70;;;;;;5074430;28;20362;-69
2021/11/02 17:21:10;;;;;;;0.20;0.20;;;15.20;82.50;;;;;;5059086;28;20217;-69
2021/11/02 17:23:38;;;;;;;0.47;0.47;;;15.20;82.60;;;;;;5073309;28;20214;-69
2021/11/02 17:26:07;;;;;;;1.40;0.50;;;15.10;82.60;;;;;;5057678;28;20229;-69
2021/11/02 17:28:35;;;;;;;0.10;0.10;;;15.10;82.70;;;;;;5075928;28;20214;-70
2021/11/02 17:31:06;;;;;;;0.10;0.10;;;15.00;82.80;;;;;;5074922;28;20213;-69
2021/11/02 17:33:35;;;;;;;0.57;0.57;;;14.90;83.00;;;;;;5074740;28;20236;-69
2021/11/02 17:36:08;;;;;;;0.20;0.20;;;14.90;83.20;;;;;;5072941;28;20237;-69
2021/11/02 17:38:38;;;;;;;0.10;0.10;;;14.90;83.40;;;;;;5074867;28;20220;-69
2021/11/02 17:41:05;;;;;;;0.10;0.10;;;14.80;83.80;;;;;;5055992;28;20241;-71
2021/11/02 17:43:33;;;;;;;0.30;0.30;;;14.80;84.00;;;;;;5075020;28;20495;-71
2021/11/02 17:46:00;;;;;;;0.93;0.53;;;14.80;84.20;;;;;;5056602;28;20214;-72
2021/11/02 17:48:28;;;;;;;0.57;0.57;;;14.80;84.10;;;;;;5074402;28;20210;-70
2021/11/02 17:50:56;;;;;;;0.50;0.50;;;14.80;84.10;;;;;;5074092;28;20541;-69
2021/11/02 17:53:24;;;;;;;0.10;0.10;;;14.80;84.30;;;;;;5057393;28;20552;-70
2021/11/02 17:55:52;;;;;;;0.40;0.40;;;14.70;84.20;;;;;;5072961;28;20248;-70
2021/11/02 17:58:22;;;;;;;0.40;0.40;;;14.70;84.30;;;;;;5056650;28;20210;-71
2021/11/02 18:00:56;;;;;;;0.10;0.10;;;14.60;84.50;;;;;;5058481;28;20213;-71
2021/11/02 18:03:38;;;;;;;6.43;1.70;;;14.60;84.90;;;;;;5074239;28;20218;-71
2021/11/02 18:06:08;;;;;;;0.40;0.40;;;14.50;85.20;;;;;;5057650;28;20227;-71
2021/11/02 18:08:37;;;;;;;0.30;0.30;;;14.50;85.70;;;;;;5075432;28;20221;-71
2021/11/02 18:11:05;;;;;;;0.50;0.50;;;14.40;85.60;;;;;;5075639;28;20213;-71
2021/11/02 18:13:34;;;;;;;0.30;0.30;;;14.30;86.10;;;;;;5056644;28;20213;-71
2021/11/02 18:16:02;;;;;;;0.20;0.20;;;14.30;86.30;;;;;;5057388;28;20237;-71
2021/11/02 18:18:37;;;;;;;0.17;0.17;;;14.30;86.70;;;;;;5074394;28;20213;-71
2021/11/02 18:21:08;;;;;;;0.60;0.60;;;14.20;86.80;;;;;;5055688;28;20247;-71
2021/11/02 18:23:38;;;;;;;0.60;0.60;;;14.20;87.10;;;;;;5072559;28;20221;-71
2021/11/02 18:26:05;;;;;;;0.13;0.13;;;14.10;87.10;;;;;;5073490;28;20576;-71
2021/11/02 18:28:33;;;;;;;0.83;0.83;;;14.10;87.20;;;;;;5074440;28;20218;-71